sensor_id;sensor_type;location;lat;lon;timestamp;pressure;altitude;pressure_sealevel;temperature;humidity
26865;BME280;40618;51.166;10.322;2023-03-14T00:02:06;95204.72;;;9.15;85.83
26865;BME280;40618;51.166;10.322;2023-03-14T00:04:32;95196.31;;;9.11;85.34
26865;BME280;40618;51.166;10.322;2023-03-14T00:06:58;95185.19;;;9.11;84.83
26865;BME280;40618;51.166;10.322;2023-03-14T00:09:23;95193.03;;;9.09;85.30
26865;BME280;40618;51.166;10.322;2023-03-14T00:11:49;95214.59;;;9.08;85.00
26865;BME280;40618;51.166;10.322;2023-03-14T00:14:14;95223.25;;;9.07;85.16
26865;BME280;40618;51.166;10.322;2023-03-14T00:16:41;95242.25;;;9.06;84.97
26865;BME280;40618;51.166;10.322;2023-03-14T00:19:10;95249.16;;;9.06;84.76
26865;BME280;40618;51.166;10.322;2023-03-14T00:21:36;95257.81;;;9.05;84.86
26865;BME280;40618;51.166;10.322;2023-03-14T00:24:01;95264.75;;;9.04;85.53
26865;BME280;40618;51.166;10.322;2023-03-14T00:26:27;95267.41;;;9.03;84.79
26865;BME280;40618;51.166;10.322;2023-03-14T00:28:53;95291.38;;;9.05;85.45
26865;BME280;40618;51.166;10.322;2023-03-14T00:31:19;95296.47;;;9.06;84.82
26865;BME280;40618;51.166;10.322;2023-03-14T00:33:45;95293.88;;;9.06;85.14
26865;BME280;40618;51.166;10.322;2023-03-14T00:36:14;95304.22;;;9.06;84.51
26865;BME280;40618;51.166;10.322;2023-03-14T00:38:43;95324.69;;;9.09;84.90
26865;BME280;40618;51.166;10.322;2023-03-14T00:41:12;95320.34;;;9.10;84.67
26865;BME280;40618;51.166;10.322;2023-03-14T00:43:39;95322.81;;;9.11;84.40
26865;BME280;40618;51.166;10.322;2023-03-14T00:46:06;95329.56;;;9.14;84.50
26865;BME280;40618;51.166;10.322;2023-03-14T00:48:33;95318.50;;;9.12;84.83
26865;BME280;40618;51.166;10.322;2023-03-14T00:50:59;95324.50;;;9.12;84.18
26865;BME280;40618;51.166;10.322;2023-03-14T00:53:26;95316.66;;;9.14;84.56
26865;BME280;40618;51.166;10.322;2023-03-14T00:55:51;95320.25;;;9.11;84.05
26865;BME280;40618;51.166;10.322;2023-03-14T00:58:18;95322.91;;;9.10;84.59
26865;BME280;40618;51.166;10.322;2023-03-14T01:00:44;95315.28;;;9.08;84.01
26865;BME280;40618;51.166;10.322;2023-03-14T01:03:11;95309.28;;;9.08;84.37
26865;BME280;40618;51.166;10.322;2023-03-14T01:05:39;95305.84;;;9.07;84.29
26865;BME280;40618;51.166;10.322;2023-03-14T01:08:05;95305.13;;;9.05;84.26
26865;BME280;40618;51.166;10.322;2023-03-14T01:10:32;95291.47;;;9.03;84.34
26865;BME280;40618;51.166;10.322;2023-03-14T01:12:58;95281.31;;;9.00;84.48
26865;BME280;40618;51.166;10.322;2023-03-14T01:15:24;95283.91;;;9.00;84.37
26865;BME280;40618;51.166;10.322;2023-03-14T01:17:50;95291.75;;;8.98;83.62
26865;BME280;40618;51.166;10.322;2023-03-14T01:20:16;95296.09;;;8.98;83.95
26865;BME280;40618;51.166;10.322;2023-03-14T01:22:43;95291.00;;;8.96;83.80
26865;BME280;40618;51.166;10.322;2023-03-14T01:25:14;95282.34;;;8.97;83.87
26865;BME280;40618;51.166;10.322;2023-03-14T01:27:41;95273.78;;;8.97;83.68
26865;BME280;40618;51.166;10.322;2023-03-14T01:30:08;95266.03;;;8.97;84.48
26865;BME280;40618;51.166;10.322;2023-03-14T01:32:34;95269.53;;;8.96;83.71
26865;BME280;40618;51.166;10.322;2023-03-14T01:35:00;95266.13;;;8.95;83.92
26865;BME280;40618;51.166;10.322;2023-03-14T01:37:25;95265.28;;;8.95;84.42
26865;BME280;40618;51.166;10.322;2023-03-14T01:39:51;95256.72;;;8.94;84.14
26865;BME280;40618;51.166;10.322;2023-03-14T01:42:17;95255.91;;;8.94;83.78
26865;BME280;40618;51.166;10.322;2023-03-14T01:48:12;95235.41;;;8.91;84.19
26865;BME280;40618;51.166;10.322;2023-03-14T01:50:37;95222.59;;;8.89;84.40
26865;BME280;40618;51.166;10.322;2023-03-14T01:53:03;95224.44;;;8.87;83.58
26865;BME280;40618;51.166;10.322;2023-03-14T01:55:28;95225.38;;;8.86;83.59
26865;BME280;40618;51.166;10.322;2023-03-14T01:57:59;95215.97;;;8.85;83.52
26865;BME280;40618;51.166;10.322;2023-03-14T02:00:29;95212.56;;;8.85;83.31
26865;BME280;40618;51.166;10.322;2023-03-14T02:02:57;95203.16;;;8.84;83.95
26865;BME280;40618;51.166;10.322;2023-03-14T02:05:38;95204.06;;;8.83;83.88
26865;BME280;40618;51.166;10.322;2023-03-14T02:08:08;95208.31;;;8.84;83.79
26865;BME280;40618;51.166;10.322;2023-03-14T02:10:43;95211.81;;;8.83;83.61
26865;BME280;40618;51.166;10.322;2023-03-14T02:13:11;95202.38;;;8.81;83.61
26865;BME280;40618;51.166;10.322;2023-03-14T02:15:39;95183.50;;;8.81;83.33
26865;BME280;40618;51.166;10.322;2023-03-14T02:18:05;95167.94;;;8.83;83.64
26865;BME280;40618;51.166;10.322;2023-03-14T02:29:33;95157.34;;;8.73;84.06
26865;BME280;40618;51.166;10.322;2023-03-14T02:32:02;95172.09;;;8.71;83.79
26865;BME280;40618;51.166;10.322;2023-03-14T02:34:28;95167.75;;;8.71;83.46
26865;BME280;40618;51.166;10.322;2023-03-14T02:36:56;95166.94;;;8.71;83.97
26865;BME280;40618;51.166;10.322;2023-03-14T02:39:33;95160.09;;;8.70;83.56
26865;BME280;40618;51.166;10.322;2023-03-14T02:42:03;95161.84;;;8.69;83.58
26865;BME280;40618;51.166;10.322;2023-03-14T02:44:29;95149.97;;;8.67;83.96
26865;BME280;40618;51.166;10.322;2023-03-14T02:46:54;95160.28;;;8.67;83.77
26865;BME280;40618;51.166;10.322;2023-03-14T02:49:21;95158.53;;;8.67;83.52
26865;BME280;40618;51.166;10.322;2023-03-14T02:51:47;95162.78;;;8.68;83.71
26865;BME280;40618;51.166;10.322;2023-03-14T02:54:15;95153.28;;;8.69;83.76
26865;BME280;40618;51.166;10.322;2023-03-14T02:56:41;95148.94;;;8.69;83.26
26865;BME280;40618;51.166;10.322;2023-03-14T02:59:06;95143.78;;;8.69;83.96
26865;BME280;40618;51.166;10.322;2023-03-14T03:01:35;95148.94;;;8.69;83.94
26865;BME280;40618;51.166;10.322;2023-03-14T03:04:00;95151.44;;;8.71;83.38
26865;BME280;40618;51.166;10.322;2023-03-14T03:06:26;95142.88;;;8.70;83.05
26865;BME280;40618;51.166;10.322;2023-03-14T03:08:52;95145.44;;;8.70;83.21
26865;BME280;40618;51.166;10.322;2023-03-14T03:11:18;95140.28;;;8.70;83.79
26865;BME280;40618;51.166;10.322;2023-03-14T03:13:43;95151.44;;;8.71;83.20
26865;BME280;40618;51.166;10.322;2023-03-14T03:16:09;95129.16;;;8.70;83.62
26865;BME280;40618;51.166;10.322;2023-03-14T03:18:34;95132.63;;;8.69;83.22
26865;BME280;40618;51.166;10.322;2023-03-14T03:21:04;95126.66;;;8.68;83.62
26865;BME280;40618;51.166;10.322;2023-03-14T03:23:31;95130.16;;;8.67;84.18
26865;BME280;40618;51.166;10.322;2023-03-14T03:25:57;95129.34;;;8.67;83.75
26865;BME280;40618;51.166;10.322;2023-03-14T03:28:23;95119.94;;;8.66;83.38
26865;BME280;40618;51.166;10.322;2023-03-14T03:30:48;95113.00;;;8.66;83.17
26865;BME280;40618;51.166;10.322;2023-03-14T03:33:14;95118.25;;;8.64;83.73
26865;BME280;40618;51.166;10.322;2023-03-14T03:35:47;95117.34;;;8.66;83.75
26865;BME280;40618;51.166;10.322;2023-03-14T03:38:15;95117.44;;;8.64;83.37
26865;BME280;40618;51.166;10.322;2023-03-14T03:40:42;95125.19;;;8.64;83.97
26865;BME280;40618;51.166;10.322;2023-03-14T03:43:08;95116.59;;;8.63;83.40
26865;BME280;40618;51.166;10.322;2023-03-14T03:45:34;95129.41;;;8.65;83.38
26865;BME280;40618;51.166;10.322;2023-03-14T03:47:59;95113.00;;;8.66;82.79
26865;BME280;40618;51.166;10.322;2023-03-14T03:50:25;95121.59;;;8.67;83.60
26865;BME280;40618;51.166;10.322;2023-03-14T03:52:51;95120.75;;;8.66;83.54
26865;BME280;40618;51.166;10.322;2023-03-14T03:55:16;95123.34;;;8.66;83.59
26865;BME280;40618;51.166;10.322;2023-03-14T03:57:42;95119.09;;;8.65;84.02
26865;BME280;40618;51.166;10.322;2023-03-14T04:00:09;95119.03;;;8.67;83.24
26865;BME280;40618;51.166;10.322;2023-03-14T04:02:37;95118.16;;;8.66;83.57
26865;BME280;40618;51.166;10.322;2023-03-14T04:05:03;95126.81;;;8.65;83.48
26865;BME280;40618;51.166;10.322;2023-03-14T04:07:31;95116.50;;;8.65;83.01
26865;BME280;40618;51.166;10.322;2023-03-14T04:09:57;95117.44;;;8.64;83.50
26865;BME280;40618;51.166;10.322;2023-03-14T04:12:23;95120.84;;;8.64;83.62
26865;BME280;40618;51.166;10.322;2023-03-14T04:14:49;95122.69;;;8.62;83.67
26865;BME280;40618;51.166;10.322;2023-03-14T04:17:14;95123.53;;;8.63;83.44
26865;BME280;40618;51.166;10.322;2023-03-14T04:19:40;95112.38;;;8.62;83.04
26865;BME280;40618;51.166;10.322;2023-03-14T04:22:07;95115.88;;;8.61;83.30
26865;BME280;40618;51.166;10.322;2023-03-14T04:24:34;95115.03;;;8.61;83.20
26865;BME280;40618;51.166;10.322;2023-03-14T04:26:59;95117.59;;;8.61;82.86
26865;BME280;40618;51.166;10.322;2023-03-14T04:29:25;95127.94;;;8.61;82.46
26865;BME280;40618;51.166;10.322;2023-03-14T04:31:51;95103.06;;;8.60;82.83
26865;BME280;40618;51.166;10.322;2023-03-14T04:34:16;95101.41;;;8.59;82.90
26865;BME280;40618;51.166;10.322;2023-03-14T04:36:42;95104.91;;;8.58;82.91
26865;BME280;40618;51.166;10.322;2023-03-14T04:39:07;95095.44;;;8.58;83.26
26865;BME280;40618;51.166;10.322;2023-03-14T04:41:33;95094.59;;;8.58;82.88
26865;BME280;40618;51.166;10.322;2023-03-14T04:43:59;95098.06;;;8.57;83.01
26865;BME280;40618;51.166;10.322;2023-03-14T04:46:24;95092.09;;;8.56;82.75
26865;BME280;40618;51.166;10.322;2023-03-14T04:48:50;95086.03;;;8.57;82.34
26865;BME280;40618;51.166;10.322;2023-03-14T04:51:15;95089.63;;;8.55;82.46
26865;BME280;40618;51.166;10.322;2023-03-14T04:53:41;95086.19;;;8.54;83.23
26865;BME280;40618;51.166;10.322;2023-03-14T04:56:07;95086.19;;;8.54;83.08
26865;BME280;40618;51.166;10.322;2023-03-14T04:58:33;95094.88;;;8.53;83.39
26865;BME280;40618;51.166;10.322;2023-03-14T05:01:03;95083.81;;;8.51;82.79
26865;BME280;40618;51.166;10.322;2023-03-14T05:03:29;95088.25;;;8.49;82.90
26865;BME280;40618;51.166;10.322;2023-03-14T05:05:55;95087.38;;;8.49;83.18
26865;BME280;40618;51.166;10.322;2023-03-14T05:08:22;95081.41;;;8.48;82.92
26865;BME280;40618;51.166;10.322;2023-03-14T05:10:55;95096.13;;;8.46;83.38
26865;BME280;40618;51.166;10.322;2023-03-14T05:13:22;95077.31;;;8.44;82.82
26865;BME280;40618;51.166;10.322;2023-03-14T05:15:48;95083.31;;;8.44;82.22
26865;BME280;40618;51.166;10.322;2023-03-14T05:18:16;95077.53;;;8.41;82.56
26865;BME280;40618;51.166;10.322;2023-03-14T05:20:43;95087.00;;;8.40;82.99
26865;BME280;40618;51.166;10.322;2023-03-14T05:23:09;95087.00;;;8.40;82.64
26865;BME280;40618;51.166;10.322;2023-03-14T05:25:35;95095.66;;;8.39;82.48
26865;BME280;40618;51.166;10.322;2023-03-14T05:28:00;95092.34;;;8.37;82.47
26865;BME280;40618;51.166;10.322;2023-03-14T05:30:26;95101.94;;;8.35;83.01
26865;BME280;40618;51.166;10.322;2023-03-14T05:32:53;95096.84;;;8.34;82.99
26865;BME280;40618;51.166;10.322;2023-03-14T05:35:19;95097.88;;;8.31;82.49
26865;BME280;40618;51.166;10.322;2023-03-14T05:37:45;95097.03;;;8.30;82.52
26865;BME280;40618;51.166;10.322;2023-03-14T05:40:11;95095.34;;;8.29;82.50
26865;BME280;40618;51.166;10.322;2023-03-14T05:42:37;95095.44;;;8.28;82.95
26865;BME280;40618;51.166;10.322;2023-03-14T05:45:02;95086.06;;;8.27;82.63
26865;BME280;40618;51.166;10.322;2023-03-14T05:47:28;95095.53;;;8.26;83.20
26865;BME280;40618;51.166;10.322;2023-03-14T05:49:54;95092.25;;;8.24;82.49
26865;BME280;40618;51.166;10.322;2023-03-14T05:52:19;95093.97;;;8.24;82.49
26865;BME280;40618;51.166;10.322;2023-03-14T05:54:45;95087.16;;;8.23;83.05
26865;BME280;40618;51.166;10.322;2023-03-14T05:57:10;95093.16;;;8.23;82.99
26865;BME280;40618;51.166;10.322;2023-03-14T05:59:36;95084.56;;;8.23;83.13
26865;BME280;40618;51.166;10.322;2023-03-14T06:02:02;95088.81;;;8.24;82.58
26865;BME280;40618;51.166;10.322;2023-03-14T06:04:27;95086.22;;;8.24;82.56
26865;BME280;40618;51.166;10.322;2023-03-14T06:06:53;95093.97;;;8.24;82.51
26865;BME280;40618;51.166;10.322;2023-03-14T06:09:18;95086.34;;;8.22;82.90
26865;BME280;40618;51.166;10.322;2023-03-14T06:11:45;95074.44;;;8.20;83.06
26865;BME280;40618;51.166;10.322;2023-03-14T06:14:11;95079.69;;;8.18;82.66
26865;BME280;40618;51.166;10.322;2023-03-14T06:16:37;95074.44;;;8.20;82.94
26865;BME280;40618;51.166;10.322;2023-03-14T06:19:02;95075.28;;;8.20;82.49
26865;BME280;40618;51.166;10.322;2023-03-14T06:21:28;95074.25;;;8.23;82.51
26865;BME280;40618;51.166;10.322;2023-03-14T06:23:54;95063.88;;;8.24;82.51
26865;BME280;40618;51.166;10.322;2023-03-14T06:26:19;95053.47;;;8.26;82.71
26865;BME280;40618;51.166;10.322;2023-03-14T06:28:45;95059.44;;;8.26;82.54
26865;BME280;40618;51.166;10.322;2023-03-14T06:31:11;95053.38;;;8.27;82.25
26865;BME280;40618;51.166;10.322;2023-03-14T06:33:36;95055.13;;;8.27;82.87
26865;BME280;40618;51.166;10.322;2023-03-14T06:36:02;95052.63;;;8.25;82.36
26865;BME280;40618;51.166;10.322;2023-03-14T06:38:28;95051.81;;;8.25;82.78
26865;BME280;40618;51.166;10.322;2023-03-14T06:40:53;95051.00;;;8.24;82.80
26865;BME280;40618;51.166;10.322;2023-03-14T06:43:19;95057.78;;;8.25;83.02
26865;BME280;40618;51.166;10.322;2023-03-14T06:45:44;95050.91;;;8.26;82.31
26865;BME280;40618;51.166;10.322;2023-03-14T06:48:10;95045.66;;;8.27;83.20
26865;BME280;40618;51.166;10.322;2023-03-14T06:50:35;95049.03;;;8.28;82.93
26865;BME280;40618;51.166;10.322;2023-03-14T06:53:01;95049.97;;;8.27;82.52
26865;BME280;40618;51.166;10.322;2023-03-14T06:55:27;95062.03;;;8.26;82.72
26865;BME280;40618;51.166;10.322;2023-03-14T06:57:52;95056.16;;;8.24;82.27
26865;BME280;40618;51.166;10.322;2023-03-14T07:00:18;95046.00;;;8.21;82.44
26865;BME280;40618;51.166;10.322;2023-03-14T07:02:44;95050.53;;;8.18;83.14
26865;BME280;40618;51.166;10.322;2023-03-14T07:05:09;95058.41;;;8.14;82.59
26865;BME280;40618;51.166;10.322;2023-03-14T07:07:35;95050.31;;;8.06;82.71
26865;BME280;40618;51.166;10.322;2023-03-14T07:10:01;95068.63;;;8.02;83.34
26865;BME280;40618;51.166;10.322;2023-03-14T07:12:27;95068.91;;;7.97;82.96
26865;BME280;40618;51.166;10.322;2023-03-14T07:14:52;95069.81;;;7.96;83.36
26865;BME280;40618;51.166;10.322;2023-03-14T07:17:18;95073.56;;;7.90;83.01
26865;BME280;40618;51.166;10.322;2023-03-14T07:19:43;95064.19;;;7.89;83.72
26865;BME280;40618;51.166;10.322;2023-03-14T07:22:09;95065.84;;;7.90;83.25
26865;BME280;40618;51.166;10.322;2023-03-14T07:24:34;95071.00;;;7.90;83.19
26865;BME280;40618;51.166;10.322;2023-03-14T07:27:00;95070.16;;;7.90;83.42
26865;BME280;40618;51.166;10.322;2023-03-14T07:29:25;95070.16;;;7.90;83.73
26865;BME280;40618;51.166;10.322;2023-03-14T07:31:51;95070.16;;;7.90;83.45
26865;BME280;40618;51.166;10.322;2023-03-14T07:34:17;95064.94;;;7.91;83.97
26865;BME280;40618;51.166;10.322;2023-03-14T07:36:42;95071.00;;;7.90;84.01
26865;BME280;40618;51.166;10.322;2023-03-14T07:39:08;95078.81;;;7.89;83.87
26865;BME280;40618;51.166;10.322;2023-03-14T07:41:34;95071.91;;;7.89;83.77
26865;BME280;40618;51.166;10.322;2023-03-14T07:44:00;95073.50;;;7.92;83.51
26865;BME280;40618;51.166;10.322;2023-03-14T07:46:25;95064.00;;;7.92;83.18
26865;BME280;40618;51.166;10.322;2023-03-14T07:48:51;95069.16;;;7.92;83.42
26865;BME280;40618;51.166;10.322;2023-03-14T07:51:17;95062.28;;;7.93;84.13
26865;BME280;40618;51.166;10.322;2023-03-14T07:53:42;95063.91;;;7.94;84.11
26865;BME280;40618;51.166;10.322;2023-03-14T07:56:08;95056.13;;;7.95;84.15
26865;BME280;40618;51.166;10.322;2023-03-14T07:58:34;95054.34;;;7.96;84.24
26865;BME280;40618;51.166;10.322;2023-03-14T08:00:59;95052.69;;;7.95;83.43
26865;BME280;40618;51.166;10.322;2023-03-14T08:03:25;95050.88;;;7.97;84.02
26865;BME280;40618;51.166;10.322;2023-03-14T08:05:51;95054.16;;;7.99;83.85
26865;BME280;40618;51.166;10.322;2023-03-14T08:08:17;95049.78;;;8.01;83.63
26865;BME280;40618;51.166;10.322;2023-03-14T08:10:43;95052.97;;;8.05;84.03
26865;BME280;40618;51.166;10.322;2023-03-14T08:13:09;95049.41;;;8.07;83.81
26865;BME280;40618;51.166;10.322;2023-03-14T08:15:35;95034.69;;;8.09;83.89
26865;BME280;40618;51.166;10.322;2023-03-14T08:18:02;95036.31;;;8.10;83.80
26865;BME280;40618;51.166;10.322;2023-03-14T08:20:29;95043.88;;;8.13;84.03
26865;BME280;40618;51.166;10.322;2023-03-14T08:22:56;95041.13;;;8.17;83.84
26865;BME280;40618;51.166;10.322;2023-03-14T08:25:23;95027.22;;;8.19;83.37
26865;BME280;40618;51.166;10.322;2023-03-14T08:27:49;95026.22;;;8.22;83.65
26865;BME280;40618;51.166;10.322;2023-03-14T08:30:16;95017.53;;;8.23;83.23
26865;BME280;40618;51.166;10.322;2023-03-14T08:32:43;95021.78;;;8.24;83.12
26865;BME280;40618;51.166;10.322;2023-03-14T08:35:10;95018.09;;;8.28;83.09
26865;BME280;40618;51.166;10.322;2023-03-14T08:37:36;95013.69;;;8.30;83.23
26865;BME280;40618;51.166;10.322;2023-03-14T08:40:02;95006.69;;;8.32;83.00
26865;BME280;40618;51.166;10.322;2023-03-14T08:42:35;95010.00;;;8.34;82.66
26865;BME280;40618;51.166;10.322;2023-03-14T08:45:02;95011.75;;;8.34;83.55
26865;BME280;40618;51.166;10.322;2023-03-14T08:47:28;95004.84;;;8.34;83.57
26865;BME280;40618;51.166;10.322;2023-03-14T08:49:53;95003.94;;;8.35;83.50
26865;BME280;40618;51.166;10.322;2023-03-14T08:52:19;95010.63;;;8.38;82.99
26865;BME280;40618;51.166;10.322;2023-03-14T08:54:45;95020.13;;;8.37;82.57
26865;BME280;40618;51.166;10.322;2023-03-14T08:57:11;95012.41;;;8.37;83.03
26865;BME280;40618;51.166;10.322;2023-03-14T08:59:37;95015.78;;;8.38;83.06
26865;BME280;40618;51.166;10.322;2023-03-14T09:02:03;95021.69;;;8.40;82.34
26865;BME280;40618;51.166;10.322;2023-03-14T09:04:29;95031.91;;;8.41;83.37
26865;BME280;40618;51.166;10.322;2023-03-14T09:06:55;95022.41;;;8.42;82.76
26865;BME280;40618;51.166;10.322;2023-03-14T09:09:23;95030.16;;;8.42;82.37
26865;BME280;40618;51.166;10.322;2023-03-14T09:11:51;95034.50;;;8.41;83.26
26865;BME280;40618;51.166;10.322;2023-03-14T09:14:17;95018.13;;;8.42;82.46
26865;BME280;40618;51.166;10.322;2023-03-14T09:16:42;95021.41;;;8.44;82.81
26865;BME280;40618;51.166;10.322;2023-03-14T09:19:08;95017.03;;;8.46;82.77
26865;BME280;40618;51.166;10.322;2023-03-14T09:21:33;95036.56;;;8.51;82.55
26865;BME280;40618;51.166;10.322;2023-03-14T09:23:59;95032.13;;;8.53;83.50
26865;BME280;40618;51.166;10.322;2023-03-14T09:26:25;95035.44;;;8.55;82.25
26865;BME280;40618;51.166;10.322;2023-03-14T09:28:50;95045.66;;;8.56;83.15
26865;BME280;40618;51.166;10.322;2023-03-14T09:31:16;95044.75;;;8.57;83.15
26865;BME280;40618;51.166;10.322;2023-03-14T09:33:41;95046.41;;;8.58;82.26
26865;BME280;40618;51.166;10.322;2023-03-14T09:36:07;95040.41;;;8.58;83.25
26865;BME280;40618;51.166;10.322;2023-03-14T09:38:34;95056.00;;;8.56;83.01
26865;BME280;40618;51.166;10.322;2023-03-14T09:41:01;95048.25;;;8.56;82.26
26865;BME280;40618;51.166;10.322;2023-03-14T09:43:35;95054.97;;;8.59;82.64
26865;BME280;40618;51.166;10.322;2023-03-14T09:46:02;95043.91;;;8.57;82.73
26865;BME280;40618;51.166;10.322;2023-03-14T09:48:31;95051.66;;;8.57;83.07
26865;BME280;40618;51.166;10.322;2023-03-14T09:51:00;95049.25;;;8.54;82.64
26865;BME280;40618;51.166;10.322;2023-03-14T09:53:41;95050.94;;;8.55;82.77
26865;BME280;40618;51.166;10.322;2023-03-14T09:56:16;95049.81;;;8.59;82.72
26865;BME280;40618;51.166;10.322;2023-03-14T09:58:56;95046.13;;;8.63;83.18
26865;BME280;40618;51.166;10.322;2023-03-14T10:01:28;95033.03;;;8.66;82.70
26865;BME280;40618;51.166;10.322;2023-03-14T10:03:57;95039.03;;;8.67;83.15
26865;BME280;40618;51.166;10.322;2023-03-14T10:06:27;95051.00;;;8.68;82.79
26865;BME280;40618;51.166;10.322;2023-03-14T10:08:55;95045.75;;;8.69;82.92
26865;BME280;40618;51.166;10.322;2023-03-14T10:11:22;95048.31;;;8.69;83.11
26865;BME280;40618;51.166;10.322;2023-03-14T10:14:16;95038.75;;;8.71;82.74
26865;BME280;40618;51.166;10.322;2023-03-14T10:16:53;95048.25;;;8.71;82.52
26865;BME280;40618;51.166;10.322;2023-03-14T10:19:18;95039.66;;;8.70;82.86
26865;BME280;40618;51.166;10.322;2023-03-14T10:21:50;95038.75;;;8.71;82.54
26865;BME280;40618;51.166;10.322;2023-03-14T10:24:27;95041.13;;;8.74;82.79
26865;BME280;40618;51.166;10.322;2023-03-14T10:26:58;95038.75;;;8.71;83.34
26865;BME280;40618;51.166;10.322;2023-03-14T10:29:32;95043.00;;;8.72;83.49
26865;BME280;40618;51.166;10.322;2023-03-14T10:32:02;95056.63;;;8.74;83.09
26865;BME280;40618;51.166;10.322;2023-03-14T10:34:34;95052.00;;;8.79;83.14
26865;BME280;40618;51.166;10.322;2023-03-14T10:37:17;95036.31;;;8.83;83.41
26865;BME280;40618;51.166;10.322;2023-03-14T10:39:49;95055.13;;;8.85;83.56
26865;BME280;40618;51.166;10.322;2023-03-14T10:42:30;95049.88;;;8.86;83.20
26865;BME280;40618;51.166;10.322;2023-03-14T10:45:01;95052.34;;;8.88;83.39
26865;BME280;40618;51.166;10.322;2023-03-14T10:47:34;95053.72;;;8.93;83.56
26865;BME280;40618;51.166;10.322;2023-03-14T10:50:23;95055.19;;;8.97;83.64
26865;BME280;40618;51.166;10.322;2023-03-14T10:52:52;95046.53;;;8.98;83.61
26865;BME280;40618;51.166;10.322;2023-03-14T10:55:19;95057.56;;;9.01;83.25
26865;BME280;40618;51.166;10.322;2023-03-14T10:57:45;95050.38;;;9.06;82.89
26865;BME280;40618;51.166;10.322;2023-03-14T11:02:51;95040.97;;;9.05;83.43
26865;BME280;40618;51.166;10.322;2023-03-14T11:06:21;95053.72;;;9.08;82.82
26865;BME280;40618;51.166;10.322;2023-03-14T11:08:41;95042.28;;;9.12;83.23
26865;BME280;40618;51.166;10.322;2023-03-14T11:11:30;95046.31;;;9.16;83.38
26865;BME280;40618;51.166;10.322;2023-03-14T11:17:00;95049.13;;;9.26;82.88
26865;BME280;40618;51.166;10.322;2023-03-14T11:19:42;95051.63;;;9.27;83.31
26865;BME280;40618;51.166;10.322;2023-03-14T11:22:18;95042.94;;;9.28;83.33
26865;BME280;40618;51.166;10.322;2023-03-14T11:30:54;95047.09;;;9.31;83.10
26865;BME280;40618;51.166;10.322;2023-03-14T11:33:27;95055.75;;;9.30;82.79
26865;BME280;40618;51.166;10.322;2023-03-14T11:36:08;95051.63;;;9.27;82.78
26865;BME280;40618;51.166;10.322;2023-03-14T11:38:48;95035.66;;;9.35;82.75
26865;BME280;40618;51.166;10.322;2023-03-14T11:41:38;95040.94;;;9.46;82.95
26865;BME280;40618;51.166;10.322;2023-03-14T11:44:23;95022.97;;;9.58;83.24
26865;BME280;40618;51.166;10.322;2023-03-14T11:46:57;95039.56;;;9.68;82.96
26865;BME280;40618;51.166;10.322;2023-03-14T11:49:56;95032.34;;;9.73;82.48
26865;BME280;40618;51.166;10.322;2023-03-14T11:52:48;95029.88;;;9.85;81.98
26865;BME280;40618;51.166;10.322;2023-03-14T11:55:22;95029.44;;;9.91;82.69
26865;BME280;40618;51.166;10.322;2023-03-14T11:57:57;95032.97;;;10.03;82.67
26865;BME280;40618;51.166;10.322;2023-03-14T12:00:26;95022.31;;;10.07;82.25
26865;BME280;40618;51.166;10.322;2023-03-14T12:03:01;95031.22;;;10.03;81.93
26865;BME280;40618;51.166;10.322;2023-03-14T12:08:59;95033.31;;;9.98;82.57
26865;BME280;40618;51.166;10.322;2023-03-14T12:12:02;95037.13;;;9.92;82.21
26865;BME280;40618;51.166;10.322;2023-03-14T12:14:37;95038.53;;;9.83;82.15
26865;BME280;40618;51.166;10.322;2023-03-14T12:17:20;95026.13;;;9.76;81.73
26865;BME280;40618;51.166;10.322;2023-03-14T12:20:00;95030.47;;;9.75;82.43
26865;BME280;40618;51.166;10.322;2023-03-14T12:22:41;95029.44;;;9.78;82.46
26865;BME280;40618;51.166;10.322;2023-03-14T12:30:24;95015.38;;;9.69;81.72
26865;BME280;40618;51.166;10.322;2023-03-14T12:35:52;95030.03;;;9.56;82.31
26865;BME280;40618;51.166;10.322;2023-03-14T12:41:11;95031.09;;;9.39;82.54
26865;BME280;40618;51.166;10.322;2023-03-14T12:43:51;95026.00;;;9.24;82.15
26865;BME280;40618;51.166;10.322;2023-03-14T12:48:48;95020.94;;;8.95;82.87
26865;BME280;40618;51.166;10.322;2023-03-14T12:51:41;95038.19;;;8.80;83.13
26865;BME280;40618;51.166;10.322;2023-03-14T13:00:02;95047.88;;;8.48;83.94
26865;BME280;40618;51.166;10.322;2023-03-14T13:02:43;95044.81;;;8.41;84.10
26865;BME280;40618;51.166;10.322;2023-03-14T13:05:29;95057.00;;;8.39;84.25
26865;BME280;40618;51.166;10.322;2023-03-14T13:10:30;95068.41;;;8.35;84.67
26865;BME280;40618;51.166;10.322;2023-03-14T13:15:44;95076.84;;;8.23;84.89
26865;BME280;40618;51.166;10.322;2023-03-14T13:18:26;95089.53;;;8.11;84.65
26865;BME280;40618;51.166;10.322;2023-03-14T13:21:17;95115.78;;;8.04;85.13
26865;BME280;40618;51.166;10.322;2023-03-14T13:26:32;95176.28;;;7.34;85.15
26865;BME280;40618;51.166;10.322;2023-03-14T13:29:19;95205.50;;;7.00;84.86
26865;BME280;40618;51.166;10.322;2023-03-14T13:31:50;95199.69;;;6.63;84.47
26865;BME280;40618;51.166;10.322;2023-03-14T13:34:18;95204.19;;;6.41;85.03
26865;BME280;40618;51.166;10.322;2023-03-14T13:36:44;95208.25;;;6.28;85.61
26865;BME280;40618;51.166;10.322;2023-03-14T13:39:17;95212.34;;;6.15;85.09
26865;BME280;40618;51.166;10.322;2023-03-14T13:41:50;95207.50;;;6.08;85.61
26865;BME280;40618;51.166;10.322;2023-03-14T13:44:31;95210.50;;;5.99;85.46
26865;BME280;40618;51.166;10.322;2023-03-14T13:47:05;95240.44;;;6.00;86.27
26865;BME280;40618;51.166;10.322;2023-03-14T13:49:37;95227.53;;;6.02;85.84
26865;BME280;40618;51.166;10.322;2023-03-14T13:52:24;95241.34;;;5.99;86.39
26865;BME280;40618;51.166;10.322;2023-03-14T13:54:59;95239.59;;;6.00;86.54
26865;BME280;40618;51.166;10.322;2023-03-14T13:57:26;95254.03;;;6.02;86.37
26865;BME280;40618;51.166;10.322;2023-03-14T14:00:04;95293.88;;;6.11;86.54
26865;BME280;40618;51.166;10.322;2023-03-14T14:02:34;95300.91;;;6.07;86.42
26865;BME280;40618;51.166;10.322;2023-03-14T14:05:03;95321.72;;;6.01;86.18